Salten — LMFM — position and weather

sailwx.info

Track history (hours):
 
Tides and Currents Weather Stations Pressure Air Temp Water Temp Dewpoint Dewpoint Depression Visibility Wind Speed Wind Dir Waves Ship Positions

Salten

Last reported at 2016-Dec-02 19:19 UTC. Time now 2016-Dec-02 20:16 UTC.
Position N 67°44' E 014°46'.

Length 41 m; draft 2 m.

Type: High speed craft. MMSI: 259387000.

Date/timePositionNaut miles runAvg speedWind from/ knotsBaromVisibWave heightAir tempDewpointWater temp
2016-Dec-02 19:19N 67°44' E 014°46'1214.9
2016-Dec-02 18:33N 67°32' E 014°41'2 2.0
2016-Dec-02 17:33N 67°31' E 014°38'1515.0
2016-Dec-02 16:34N 67°17' E 014°22'7 3.7
2016-Dec-02 14:33N 67°24' E 014°31'7 7.1
2016-Dec-02 13:33N 67°17' E 014°23'0 0.4
2016-Dec-02 12:33N 67°17' E 014°22'0 0.0
2016-Dec-02 11:33N 67°17' E 014°22'0 0.0
2016-Dec-02 10:33N 67°17' E 014°22'0 0.0
2016-Dec-02 09:33N 67°17' E 014°22'7 7.5
2016-Dec-02 08:34N 67°24' E 014°27'7 3.7
2016-Dec-02 06:32N 67°17' E 014°22'0 0.0
2016-Dec-02 05:32N 67°17' E 014°22'0 0.0
2016-Dec-02 04:25N 67°17' E 014°22'0 0.0
2016-Dec-02 03:32N 67°17' E 014°22'1615.5
2016-Dec-02 02:32N 67°31' E 014°38'4330.7
2016-Dec-02 01:09N 68°14' E 014°34'0 0.0
2016-Dec-02 00:30N 68°14' E 014°34'0 0.0
2016-Dec-01 23:32N 68°14' E 014°34'0 0.0
2016-Dec-01 22:33N 68°14' E 014°34'0 0.0
2016-Dec-01 21:33N 68°14' E 014°34'0 0.0
2016-Dec-01 20:33N 68°14' E 014°34'0 0.0
2016-Dec-01 19:33N 68°14' E 014°34'0 0.0
2016-Dec-01 18:32N 68°14' E 014°34'0 0.0
2016-Dec-01 17:33N 68°14' E 014°34'5050.7
2016-Dec-01 16:34N 67°24' E 014°31'8 7.6
2016-Dec-01 15:33N 67°17' E 014°22'0 0.0
2016-Dec-01 14:33N 67°17' E 014°22'0 0.0
2016-Dec-01 13:33N 67°17' E 014°22'0 0.0
2016-Dec-01 12:33N 67°17' E 014°22'0 0.0
2016-Dec-01 11:33N 67°17' E 014°22'0 0.0
2016-Dec-01 10:33N 67°17' E 014°22'0 0.0
2016-Dec-01 09:33N 67°17' E 014°22'5655.2
2016-Dec-01 08:33N 68°13' E 014°34'1918.6
2016-Dec-01 07:32N 68°02' E 015°15'8 8.3
2016-Dec-01 06:32N 67°54' E 015°11'1313.2
2016-Dec-01 05:33N 67°47' E 014°43'1613.5
2016-Dec-01 04:20N 67°30' E 014°37'1418.2
2016-Dec-01 03:33N 67°17' E 014°22'0 0.0
2016-Dec-01 02:33N 67°17' E 014°22'0 0.0
2016-Dec-01 01:32N 67°17' E 014°22'0 0.0
2016-Dec-01 00:33N 67°17' E 014°22'0 0.0
2016-Nov-30 23:33N 67°17' E 014°22'0 0.0
2016-Nov-30 22:33N 67°17' E 014°22'0 0.0
2016-Nov-30 21:33N 67°17' E 014°22'1 0.6
2016-Nov-30 20:33N 67°17' E 014°24'1 0.6
2016-Nov-30 19:33N 67°17' E 014°22'0 0.0
2016-Nov-30 18:33N 67°17' E 014°22'0 0.0
2016-Nov-30 17:33N 67°17' E 014°22'7 7.4
2016-Nov-30 16:34N 67°24' E 014°26'7 7.3
2016-Nov-30 15:34N 67°17' E 014°22'0 0.0
2016-Nov-30 14:33N 67°17' E 014°22'0 0.0
2016-Nov-30 13:33N 67°17' E 014°22'0 0.0
2016-Nov-30 12:33N 67°17' E 014°22'1 0.7
2016-Nov-30 11:33N 67°17' E 014°24'1413.5
2016-Nov-30 10:32N 67°08' E 013°59'1313.2
2016-Nov-30 09:33N 67°17' E 014°22'0 0.0
2016-Nov-30 08:33N 67°17' E 014°22'0 0.0
2016-Nov-30 07:32N 67°17' E 014°22'0 0.0
2016-Nov-30 06:34N 67°17' E 014°22'0 0.0
2016-Nov-30 05:33N 67°17' E 014°22'0 0.0
2016-Nov-30 04:33N 67°17' E 014°22'0 0.0
2016-Nov-30 03:33N 67°17' E 014°22'0 0.0
2016-Nov-30 02:32N 67°17' E 014°22'0 0.0
2016-Nov-30 01:33N 67°17' E 014°22'0 0.0
2016-Nov-30 00:33N 67°17' E 014°22'0 0.0
2016-Nov-29 23:33N 67°17' E 014°22'0 0.0
2016-Nov-29 22:32N 67°17' E 014°22'0 0.0
2016-Nov-29 21:33N 67°17' E 014°22'6631.4
2016-Nov-29 19:27N 66°21' E 012°55'107119.3
2016-Nov-29 18:33N 67°55' E 015°06'9 9.2
2016-Nov-29 17:32N 68°04' E 015°08'7875.9
2016-Nov-29 16:30N 66°56' E 013°27'1819.0
2016-Nov-29 15:33N 67°07' E 014°02'1312.9
2016-Nov-29 14:33N 67°17' E 014°24'1 0.6
2016-Nov-29 13:33N 67°17' E 014°22'0 0.0
2016-Nov-29 12:33N 67°17' E 014°22'0 0.0
2016-Nov-29 11:33N 67°17' E 014°22'0 0.0
2016-Nov-29 10:33N 67°17' E 014°22'0 0.0
2016-Nov-29 09:33N 67°17' E 014°22'5756.9
2016-Nov-29 08:33N 68°14' E 014°34'0 0.0
2016-Nov-29 07:33N 68°14' E 014°34'0 0.0
2016-Nov-29 06:33N 68°14' E 014°34'0 0.0
2016-Nov-29 05:33N 68°14' E 014°34'0 0.0
2016-Nov-29 04:32N 68°14' E 014°34'0 0.0
2016-Nov-29 03:33N 68°14' E 014°34'0 0.0
2016-Nov-29 02:33N 68°14' E 014°34'0 0.0
2016-Nov-29 01:32N 68°14' E 014°34'0 0.0
2016-Nov-29 00:33N 68°14' E 014°34'0 0.0
2016-Nov-28 23:33N 68°14' E 014°34'0 0.0
2016-Nov-28 22:33N 68°14' E 014°34'0 0.0
2016-Nov-28 21:33N 68°14' E 014°34'0 0.0
2016-Nov-28 20:33N 68°14' E 014°34'0 0.0
2016-Nov-28 19:33N 68°14' E 014°34'0 0.0
2016-Nov-28 18:33N 68°14' E 014°34'0 0.0
2016-Nov-28 17:33N 68°14' E 014°34'5049.9
2016-Nov-28 16:33N 67°24' E 014°27'7 7.4
2016-Nov-28 15:34N 67°17' E 014°22'0 0.0
2016-Nov-28 14:34N 67°17' E 014°22'0 0.0
2016-Nov-28 13:34N 67°17' E 014°22'0 0.0
2016-Nov-28 12:34N 67°17' E 014°22'1 0.6
2016-Nov-28 11:34N 67°17' E 014°24'1 0.6
2016-Nov-28 10:33N 67°17' E 014°22'0 0.0
2016-Nov-28 09:33N 67°17' E 014°22'0 0.0
2016-Nov-28 08:33N 67°17' E 014°22'0 0.0
2016-Nov-28 07:33N 67°17' E 014°22'0 0.1
2016-Nov-28 06:33N 67°17' E 014°22'0 0.1
2016-Nov-28 05:33N 67°17' E 014°22'0 0.0
2016-Nov-28 04:34N 67°17' E 014°22'0 0.0
2016-Nov-28 03:33N 67°17' E 014°22'0 0.0
2016-Nov-28 02:33N 67°17' E 014°22'0 0.0
2016-Nov-28 01:33N 67°17' E 014°22'0 0.0
2016-Nov-28 00:33N 67°17' E 014°22'0 0.0
2016-Nov-27 23:33N 67°17' E 014°22'0 0.0
2016-Nov-27 22:33N 67°17' E 014°22'0 0.0
2016-Nov-27 21:33N 67°17' E 014°22'0 0.0
2016-Nov-27 20:33N 67°17' E 014°22'0 0.0
2016-Nov-27 19:33N 67°17' E 014°22'1917.6
2016-Nov-27 18:28N 67°34' E 014°44'8185.2
2016-Nov-27 17:31N 66°26' E 012°49'1415.1
2016-Nov-27 16:33N 66°12' E 012°59'1413.5
2016-Nov-27 15:33N 66°02' E 012°38'1 0.6
2016-Nov-27 14:33N 66°01' E 012°38'0 0.0
2016-Nov-27 13:34N 66°01' E 012°38'0 0.0
2016-Nov-27 12:33N 66°01' E 012°38'0 0.0
2016-Nov-27 11:33N 66°01' E 012°38'0 0.0
2016-Nov-27 10:33N 66°01' E 012°38'0 0.0
2016-Nov-27 09:33N 66°01' E 012°38'0 0.0
2016-Nov-27 08:33N 66°01' E 012°38'0 0.0
2016-Nov-27 07:33N 66°01' E 012°38'0 0.0
2016-Nov-27 06:33N 66°01' E 012°38'0 0.0
2016-Nov-27 05:33N 66°01' E 012°38'0 0.0
2016-Nov-27 04:33N 66°01' E 012°38'0 0.0
2016-Nov-27 03:32N 66°01' E 012°38'0 0.0
2016-Nov-27 02:31N 66°01' E 012°38'8 7.8
2016-Nov-27 01:33N 66°08' E 012°48'4210.4
2016-Nov-26 21:32N 66°48' E 013°14'1211.8
2016-Nov-26 20:33N 66°52' E 013°42'1110.9
2016-Nov-26 19:32N 67°03' E 013°47'1716.9
2016-Nov-26 18:33N 67°15' E 014°16'3 3.2
2016-Nov-26 17:33N 67°17' E 014°22'7 6.9
2016-Nov-26 16:33N 67°24' E 014°25'7 6.8
2016-Nov-26 15:33N 67°17' E 014°22'0 0.0
2016-Nov-26 14:33N 67°17' E 014°22'0 0.0
2016-Nov-26 13:33N 67°17' E 014°22'0 0.0
2016-Nov-26 12:33N 67°17' E 014°22'0 0.2
2016-Nov-26 11:34N 67°17' E 014°23'1211.8
2016-Nov-26 10:34N 67°09' E 014°02'1914.9
2016-Nov-26 09:17N 66°51' E 013°41'3014.8
2016-Nov-26 07:17N 66°28' E 012°55'2 2.0
2016-Nov-26 06:11N 66°27' E 012°50'812.9
2016-Nov-26 05:33N 66°19' E 012°54'1413.7
2016-Nov-26 04:33N 66°06' E 012°42'5 5.2
2016-Nov-26 03:33N 66°01' E 012°38'0 0.0
2016-Nov-26 02:33N 66°01' E 012°38'0 0.0
2016-Nov-26 01:33N 66°01' E 012°38'0 0.0
2016-Nov-26 00:33N 66°01' E 012°38'0 0.0
2016-Nov-25 23:33N 66°01' E 012°38'0 0.0
2016-Nov-25 22:33N 66°01' E 012°38'0 0.0
2016-Nov-25 21:33N 66°01' E 012°38'0 0.0
2016-Nov-25 20:33N 66°01' E 012°38'0 0.0
2016-Nov-25 19:33N 66°01' E 012°38'0 0.0
2016-Nov-25 18:33N 66°01' E 012°38'0 0.0
2016-Nov-25 17:33N 66°01' E 012°38'0 0.0
2016-Nov-25 16:33N 66°01' E 012°38'7272.5
2016-Nov-25 15:34N 67°06' E 013°58'1414.2
2016-Nov-25 14:33N 67°17' E 014°22'0 0.0
2016-Nov-25 13:33N 67°17' E 014°22'0 0.0
2016-Nov-25 12:33N 67°17' E 014°22'0 0.0
2016-Nov-25 11:33N 67°17' E 014°22'1211.9
2016-Nov-25 10:33N 67°09' E 014°00'5014.9
2016-Nov-25 07:12N 66°27' E 012°50'7 0.6
2016-Nov-24 19:24N 66°20' E 012°52'1214.0
2016-Nov-24 18:33N 66°32' E 012°58'2612.9
2016-Nov-24 16:31N 66°55' E 013°30'1818.7
2016-Nov-24 15:33N 67°07' E 014°02'1312.8
2016-Nov-24 14:33N 67°17' E 014°24'1 0.6
2016-Nov-24 13:33N 67°17' E 014°22'0 0.0
2016-Nov-24 12:33N 67°17' E 014°22'0 0.0
2016-Nov-24 11:33N 67°17' E 014°22'0 0.0
2016-Nov-24 10:33N 67°17' E 014°22'0 0.0
2016-Nov-24 09:33N 67°17' E 014°22'1110.7
2016-Nov-24 08:33N 67°27' E 014°34'10 0.6
2016-Nov-23 17:06N 67°36' E 014°42'1629.3
2016-Nov-23 16:34N 67°21' E 014°28'5 4.8
2016-Nov-23 15:33N 67°17' E 014°22'0 0.0
2016-Nov-23 14:33N 67°17' E 014°22'0 0.0
2016-Nov-23 13:33N 67°17' E 014°22'0 0.0
2016-Nov-23 12:33N 67°17' E 014°22'0 0.0
2016-Nov-23 11:33N 67°17' E 014°22'9 9.2
2016-Nov-23 10:33N 67°11' E 014°05'3915.7
2016-Nov-23 08:04N 66°39' E 013°06'1315.6
2016-Nov-23 07:13N 66°27' E 012°51'6 0.5
2016-Nov-22 19:23N 66°21' E 012°52'  
Track history (hours):
 
Tides and Currents Weather Stations Pressure Air Temp Water Temp Dewpoint Dewpoint Depression Visibility Wind Speed Wind Dir Waves Ship Positions

Salten

Last reported at 2016-Dec-02 19:19 UTC. Time now 2016-Dec-02 20:16 UTC.
Position N 67°44' E 014°46'.

Length 41 m; draft 2 m.

Type: High speed craft. MMSI: 259387000.

Date/timePositionNaut miles runAvg speedWind from/ knotsBaromVisibWave heightAir tempDewpointWater temp
2016-Dec-02 19:19N 67°44' E 014°46'1214.9
2016-Dec-02 18:33N 67°32' E 014°41'2 2.0
2016-Dec-02 17:33N 67°31' E 014°38'1515.0
2016-Dec-02 16:34N 67°17' E 014°22'7 3.7
2016-Dec-02 14:33N 67°24' E 014°31'7 7.1
2016-Dec-02 13:33N 67°17' E 014°23'0 0.4
2016-Dec-02 12:33N 67°17' E 014°22'0 0.0
2016-Dec-02 11:33N 67°17' E 014°22'0 0.0
2016-Dec-02 10:33N 67°17' E 014°22'0 0.0
2016-Dec-02 09:33N 67°17' E 014°22'7 7.5
2016-Dec-02 08:34N 67°24' E 014°27'7 3.7
2016-Dec-02 06:32N 67°17' E 014°22'0 0.0
2016-Dec-02 05:32N 67°17' E 014°22'0 0.0
2016-Dec-02 04:25N 67°17' E 014°22'0 0.0
2016-Dec-02 03:32N 67°17' E 014°22'1615.5
2016-Dec-02 02:32N 67°31' E 014°38'4330.7
2016-Dec-02 01:09N 68°14' E 014°34'0 0.0
2016-Dec-02 00:30N 68°14' E 014°34'0 0.0
2016-Dec-01 23:32N 68°14' E 014°34'0 0.0
2016-Dec-01 22:33N 68°14' E 014°34'0 0.0
2016-Dec-01 21:33N 68°14' E 014°34'0 0.0
2016-Dec-01 20:33N 68°14' E 014°34'0 0.0
2016-Dec-01 19:33N 68°14' E 014°34'0 0.0
2016-Dec-01 18:32N 68°14' E 014°34'0 0.0
2016-Dec-01 17:33N 68°14' E 014°34'5050.7
2016-Dec-01 16:34N 67°24' E 014°31'8 7.6
2016-Dec-01 15:33N 67°17' E 014°22'0 0.0
2016-Dec-01 14:33N 67°17' E 014°22'0 0.0
2016-Dec-01 13:33N 67°17' E 014°22'0 0.0
2016-Dec-01 12:33N 67°17' E 014°22'0 0.0
2016-Dec-01 11:33N 67°17' E 014°22'0 0.0
2016-Dec-01 10:33N 67°17' E 014°22'0 0.0
2016-Dec-01 09:33N 67°17' E 014°22'5655.2
2016-Dec-01 08:33N 68°13' E 014°34'1918.6
2016-Dec-01 07:32N 68°02' E 015°15'8 8.3
2016-Dec-01 06:32N 67°54' E 015°11'1313.2
2016-Dec-01 05:33N 67°47' E 014°43'1613.5
2016-Dec-01 04:20N 67°30' E 014°37'1418.2
2016-Dec-01 03:33N 67°17' E 014°22'0 0.0
2016-Dec-01 02:33N 67°17' E 014°22'0 0.0
2016-Dec-01 01:32N 67°17' E 014°22'0 0.0
2016-Dec-01 00:33N 67°17' E 014°22'0 0.0
2016-Nov-30 23:33N 67°17' E 014°22'0 0.0
2016-Nov-30 22:33N 67°17' E 014°22'0 0.0
2016-Nov-30 21:33N 67°17' E 014°22'1 0.6
2016-Nov-30 20:33N 67°17' E 014°24'1 0.6
2016-Nov-30 19:33N 67°17' E 014°22'0 0.0
2016-Nov-30 18:33N 67°17' E 014°22'0 0.0
2016-Nov-30 17:33N 67°17' E 014°22'7 7.4
2016-Nov-30 16:34N 67°24' E 014°26'7 7.3
2016-Nov-30 15:34N 67°17' E 014°22'0 0.0
2016-Nov-30 14:33N 67°17' E 014°22'0 0.0
2016-Nov-30 13:33N 67°17' E 014°22'0 0.0
2016-Nov-30 12:33N 67°17' E 014°22'1 0.7
2016-Nov-30 11:33N 67°17' E 014°24'1413.5
2016-Nov-30 10:32N 67°08' E 013°59'1313.2
2016-Nov-30 09:33N 67°17' E 014°22'0 0.0
2016-Nov-30 08:33N 67°17' E 014°22'0 0.0
2016-Nov-30 07:32N 67°17' E 014°22'0 0.0
2016-Nov-30 06:34N 67°17' E 014°22'0 0.0
2016-Nov-30 05:33N 67°17' E 014°22'0 0.0
2016-Nov-30 04:33N 67°17' E 014°22'0 0.0
2016-Nov-30 03:33N 67°17' E 014°22'0 0.0
2016-Nov-30 02:32N 67°17' E 014°22'0 0.0
2016-Nov-30 01:33N 67°17' E 014°22'0 0.0
2016-Nov-30 00:33N 67°17' E 014°22'0 0.0
2016-Nov-29 23:33N 67°17' E 014°22'0 0.0
2016-Nov-29 22:32N 67°17' E 014°22'0 0.0
2016-Nov-29 21:33N 67°17' E 014°22'6631.4
2016-Nov-29 19:27N 66°21' E 012°55'107119.3
2016-Nov-29 18:33N 67°55' E 015°06'9 9.2
2016-Nov-29 17:32N 68°04' E 015°08'7875.9
2016-Nov-29 16:30N 66°56' E 013°27'1819.0
2016-Nov-29 15:33N 67°07' E 014°02'1312.9
2016-Nov-29 14:33N 67°17' E 014°24'1 0.6
2016-Nov-29 13:33N 67°17' E 014°22'0 0.0
2016-Nov-29 12:33N 67°17' E 014°22'0 0.0
2016-Nov-29 11:33N 67°17' E 014°22'0 0.0
2016-Nov-29 10:33N 67°17' E 014°22'0 0.0
2016-Nov-29 09:33N 67°17' E 014°22'5756.9
2016-Nov-29 08:33N 68°14' E 014°34'0 0.0
2016-Nov-29 07:33N 68°14' E 014°34'0 0.0
2016-Nov-29 06:33N 68°14' E 014°34'0 0.0
2016-Nov-29 05:33N 68°14' E 014°34'0 0.0
2016-Nov-29 04:32N 68°14' E 014°34'0 0.0
2016-Nov-29 03:33N 68°14' E 014°34'0 0.0
2016-Nov-29 02:33N 68°14' E 014°34'0 0.0
2016-Nov-29 01:32N 68°14' E 014°34'0 0.0
2016-Nov-29 00:33N 68°14' E 014°34'0 0.0
2016-Nov-28 23:33N 68°14' E 014°34'0 0.0
2016-Nov-28 22:33N 68°14' E 014°34'0 0.0
2016-Nov-28 21:33N 68°14' E 014°34'0 0.0
2016-Nov-28 20:33N 68°14' E 014°34'0 0.0
2016-Nov-28 19:33N 68°14' E 014°34'0 0.0
2016-Nov-28 18:33N 68°14' E 014°34'0 0.0
2016-Nov-28 17:33N 68°14' E 014°34'5049.9
2016-Nov-28 16:33N 67°24' E 014°27'7 7.4
2016-Nov-28 15:34N 67°17' E 014°22'0 0.0
2016-Nov-28 14:34N 67°17' E 014°22'0 0.0
2016-Nov-28 13:34N 67°17' E 014°22'0 0.0
2016-Nov-28 12:34N 67°17' E 014°22'1 0.6
2016-Nov-28 11:34N 67°17' E 014°24'1 0.6
2016-Nov-28 10:33N 67°17' E 014°22'0 0.0
2016-Nov-28 09:33N 67°17' E 014°22'0 0.0
2016-Nov-28 08:33N 67°17' E 014°22'0 0.0
2016-Nov-28 07:33N 67°17' E 014°22'0 0.1
2016-Nov-28 06:33N 67°17' E 014°22'0 0.1
2016-Nov-28 05:33N 67°17' E 014°22'0 0.0
2016-Nov-28 04:34N 67°17' E 014°22'0 0.0
2016-Nov-28 03:33N 67°17' E 014°22'0 0.0
2016-Nov-28 02:33N 67°17' E 014°22'0 0.0
2016-Nov-28 01:33N 67°17' E 014°22'0 0.0
2016-Nov-28 00:33N 67°17' E 014°22'0 0.0
2016-Nov-27 23:33N 67°17' E 014°22'0 0.0
2016-Nov-27 22:33N 67°17' E 014°22'0 0.0
2016-Nov-27 21:33N 67°17' E 014°22'0 0.0
2016-Nov-27 20:33N 67°17' E 014°22'0 0.0
2016-Nov-27 19:33N 67°17' E 014°22'1917.6
2016-Nov-27 18:28N 67°34' E 014°44'8185.2
2016-Nov-27 17:31N 66°26' E 012°49'1415.1
2016-Nov-27 16:33N 66°12' E 012°59'1413.5
2016-Nov-27 15:33N 66°02' E 012°38'1 0.6
2016-Nov-27 14:33N 66°01' E 012°38'0 0.0
2016-Nov-27 13:34N 66°01' E 012°38'0 0.0
2016-Nov-27 12:33N 66°01' E 012°38'0 0.0
2016-Nov-27 11:33N 66°01' E 012°38'0 0.0
2016-Nov-27 10:33N 66°01' E 012°38'0 0.0
2016-Nov-27 09:33N 66°01' E 012°38'0 0.0
2016-Nov-27 08:33N 66°01' E 012°38'0 0.0
2016-Nov-27 07:33N 66°01' E 012°38'0 0.0
2016-Nov-27 06:33N 66°01' E 012°38'0 0.0
2016-Nov-27 05:33N 66°01' E 012°38'0 0.0
2016-Nov-27 04:33N 66°01' E 012°38'0 0.0
2016-Nov-27 03:32N 66°01' E 012°38'0 0.0
2016-Nov-27 02:31N 66°01' E 012°38'8 7.8
2016-Nov-27 01:33N 66°08' E 012°48'4210.4
2016-Nov-26 21:32N 66°48' E 013°14'1211.8
2016-Nov-26 20:33N 66°52' E 013°42'1110.9
2016-Nov-26 19:32N 67°03' E 013°47'1716.9
2016-Nov-26 18:33N 67°15' E 014°16'3 3.2
2016-Nov-26 17:33N 67°17' E 014°22'7 6.9
2016-Nov-26 16:33N 67°24' E 014°25'7 6.8
2016-Nov-26 15:33N 67°17' E 014°22'0 0.0
2016-Nov-26 14:33N 67°17' E 014°22'0 0.0
2016-Nov-26 13:33N 67°17' E 014°22'0 0.0
2016-Nov-26 12:33N 67°17' E 014°22'0 0.2
2016-Nov-26 11:34N 67°17' E 014°23'1211.8
2016-Nov-26 10:34N 67°09' E 014°02'1914.9
2016-Nov-26 09:17N 66°51' E 013°41'3014.8
2016-Nov-26 07:17N 66°28' E 012°55'2 2.0
2016-Nov-26 06:11N 66°27' E 012°50'812.9
2016-Nov-26 05:33N 66°19' E 012°54'1413.7
2016-Nov-26 04:33N 66°06' E 012°42'5 5.2
2016-Nov-26 03:33N 66°01' E 012°38'0 0.0
2016-Nov-26 02:33N 66°01' E 012°38'0 0.0
2016-Nov-26 01:33N 66°01' E 012°38'0 0.0
2016-Nov-26 00:33N 66°01' E 012°38'0 0.0
2016-Nov-25 23:33N 66°01' E 012°38'0 0.0
2016-Nov-25 22:33N 66°01' E 012°38'0 0.0
2016-Nov-25 21:33N 66°01' E 012°38'0 0.0
2016-Nov-25 20:33N 66°01' E 012°38'0 0.0
2016-Nov-25 19:33N 66°01' E 012°38'0 0.0
2016-Nov-25 18:33N 66°01' E 012°38'0 0.0
2016-Nov-25 17:33N 66°01' E 012°38'0 0.0
2016-Nov-25 16:33N 66°01' E 012°38'7272.5
2016-Nov-25 15:34N 67°06' E 013°58'1414.2
2016-Nov-25 14:33N 67°17' E 014°22'0 0.0
2016-Nov-25 13:33N 67°17' E 014°22'0 0.0
2016-Nov-25 12:33N 67°17' E 014°22'0 0.0
2016-Nov-25 11:33N 67°17' E 014°22'1211.9
2016-Nov-25 10:33N 67°09' E 014°00'5014.9
2016-Nov-25 07:12N 66°27' E 012°50'7 0.6
2016-Nov-24 19:24N 66°20' E 012°52'1214.0
2016-Nov-24 18:33N 66°32' E 012°58'2612.9
2016-Nov-24 16:31N 66°55' E 013°30'1818.7
2016-Nov-24 15:33N 67°07' E 014°02'1312.8
2016-Nov-24 14:33N 67°17' E 014°24'1 0.6
2016-Nov-24 13:33N 67°17' E 014°22'0 0.0
2016-Nov-24 12:33N 67°17' E 014°22'0 0.0
2016-Nov-24 11:33N 67°17' E 014°22'0 0.0
2016-Nov-24 10:33N 67°17' E 014°22'0 0.0
2016-Nov-24 09:33N 67°17' E 014°22'1110.7
2016-Nov-24 08:33N 67°27' E 014°34'10 0.6
2016-Nov-23 17:06N 67°36' E 014°42'1629.3
2016-Nov-23 16:34N 67°21' E 014°28'5 4.8
2016-Nov-23 15:33N 67°17' E 014°22'0 0.0
2016-Nov-23 14:33N 67°17' E 014°22'0 0.0
2016-Nov-23 13:33N 67°17' E 014°22'0 0.0
2016-Nov-23 12:33N 67°17' E 014°22'0 0.0
2016-Nov-23 11:33N 67°17' E 014°22'9 9.2
2016-Nov-23 10:33N 67°11' E 014°05'3915.7
2016-Nov-23 08:04N 66°39' E 013°06'1315.6
2016-Nov-23 07:13N 66°27' E 012°51'6 0.5
2016-Nov-22 19:23N 66°21' E 012°52'  

Dump ship's entire track history